sensor_id;sensor_type;location;lat;lon;timestamp;temperature;humidity
57386;DHT22;62655;56.780;23.922;2022-08-19T00:02:16;20.50;99.90
57386;DHT22;62655;56.780;23.922;2022-08-19T00:04:43;20.50;99.90
57386;DHT22;62655;56.780;23.922;2022-08-19T00:07:13;20.40;99.90
57386;DHT22;62655;56.780;23.922;2022-08-19T00:09:41;20.40;99.90
57386;DHT22;62655;56.780;23.922;2022-08-19T00:12:09;20.30;99.90
57386;DHT22;62655;56.780;23.922;2022-08-19T00:14:37;20.40;99.90
57386;DHT22;62655;56.780;23.922;2022-08-19T00:17:06;20.40;99.90
57386;DHT22;62655;56.780;23.922;2022-08-19T00:19:35;20.40;99.90
57386;DHT22;62655;56.780;23.922;2022-08-19T00:22:04;20.40;99.90
57386;DHT22;62655;56.780;23.922;2022-08-19T00:24:32;20.30;99.90
57386;DHT22;62655;56.780;23.922;2022-08-19T00:27:01;20.40;99.90
57386;DHT22;62655;56.780;23.922;2022-08-19T00:29:49;20.50;99.90
57386;DHT22;62655;56.780;23.922;2022-08-19T00:32:19;20.40;99.90
57386;DHT22;62655;56.780;23.922;2022-08-19T00:34:47;20.30;99.90
57386;DHT22;62655;56.780;23.922;2022-08-19T00:37:14;20.30;99.90
57386;DHT22;62655;56.780;23.922;2022-08-19T00:39:42;20.20;99.90
57386;DHT22;62655;56.780;23.922;2022-08-19T00:42:09;20.20;99.90
57386;DHT22;62655;56.780;23.922;2022-08-19T00:44:37;20.10;99.90
57386;DHT22;62655;56.780;23.922;2022-08-19T00:47:05;20.00;99.90
57386;DHT22;62655;56.780;23.922;2022-08-19T00:49:45;20.00;99.90
57386;DHT22;62655;56.780;23.922;2022-08-19T00:52:27;19.90;99.90
57386;DHT22;62655;56.780;23.922;2022-08-19T00:54:57;19.80;99.90
57386;DHT22;62655;56.780;23.922;2022-08-19T00:57:36;19.80;99.90
57386;DHT22;62655;56.780;23.922;2022-08-19T01:00:12;19.70;99.90
57386;DHT22;62655;56.780;23.922;2022-08-19T01:02:42;20.00;99.90
57386;DHT22;62655;56.780;23.922;2022-08-19T01:05:13;19.60;99.90
57386;DHT22;62655;56.780;23.922;2022-08-19T01:07:43;19.50;99.90
57386;DHT22;62655;56.780;23.922;2022-08-19T01:10:13;19.50;99.90
57386;DHT22;62655;56.780;23.922;2022-08-19T01:12:41;19.50;99.90
57386;DHT22;62655;56.780;23.922;2022-08-19T01:15:11;19.50;99.90
57386;DHT22;62655;56.780;23.922;2022-08-19T01:17:40;19.50;99.90
57386;DHT22;62655;56.780;23.922;2022-08-19T01:20:15;19.50;99.90
57386;DHT22;62655;56.780;23.922;2022-08-19T01:22:49;19.50;99.90
57386;DHT22;62655;56.780;23.922;2022-08-19T01:25:23;19.60;99.90
57386;DHT22;62655;56.780;23.922;2022-08-19T01:27:52;19.90;99.90
57386;DHT22;62655;56.780;23.922;2022-08-19T01:30:30;19.90;99.90
57386;DHT22;62655;56.780;23.922;2022-08-19T01:32:59;19.90;99.90
57386;DHT22;62655;56.780;23.922;2022-08-19T01:35:30;19.80;99.90
57386;DHT22;62655;56.780;23.922;2022-08-19T01:38:01;19.80;99.90
57386;DHT22;62655;56.780;23.922;2022-08-19T01:40:32;19.90;99.90
57386;DHT22;62655;56.780;23.922;2022-08-19T01:43:01;19.90;99.90
57386;DHT22;62655;56.780;23.922;2022-08-19T01:45:31;20.10;99.90
57386;DHT22;62655;56.780;23.922;2022-08-19T01:48:00;20.10;99.90
57386;DHT22;62655;56.780;23.922;2022-08-19T01:50:30;20.20;99.90
57386;DHT22;62655;56.780;23.922;2022-08-19T01:52:58;20.30;99.90
57386;DHT22;62655;56.780;23.922;2022-08-19T01:55:34;20.40;99.90
57386;DHT22;62655;56.780;23.922;2022-08-19T01:58:12;20.50;99.90
57386;DHT22;62655;56.780;23.922;2022-08-19T02:00:43;20.50;99.90
57386;DHT22;62655;56.780;23.922;2022-08-19T02:03:12;20.50;99.90
57386;DHT22;62655;56.780;23.922;2022-08-19T02:05:41;20.50;99.90
57386;DHT22;62655;56.780;23.922;2022-08-19T02:08:09;20.40;99.90
57386;DHT22;62655;56.780;23.922;2022-08-19T02:10:42;20.40;99.90
57386;DHT22;62655;56.780;23.922;2022-08-19T02:13:11;20.30;99.90
57386;DHT22;62655;56.780;23.922;2022-08-19T02:15:39;20.30;99.90
57386;DHT22;62655;56.780;23.922;2022-08-19T02:18:07;20.30;99.90
57386;DHT22;62655;56.780;23.922;2022-08-19T02:20:36;20.20;99.90
57386;DHT22;62655;56.780;23.922;2022-08-19T02:23:04;20.10;99.90
57386;DHT22;62655;56.780;23.922;2022-08-19T02:25:40;19.90;99.90
57386;DHT22;62655;56.780;23.922;2022-08-19T02:28:07;19.70;99.90
57386;DHT22;62655;56.780;23.922;2022-08-19T02:30:35;19.60;99.90
57386;DHT22;62655;56.780;23.922;2022-08-19T02:33:02;19.50;99.90
57386;DHT22;62655;56.780;23.922;2022-08-19T02:35:30;19.50;99.90
57386;DHT22;62655;56.780;23.922;2022-08-19T02:37:58;19.50;99.90
57386;DHT22;62655;56.780;23.922;2022-08-19T02:40:52;19.50;99.90
57386;DHT22;62655;56.780;23.922;2022-08-19T02:43:20;19.50;99.90
57386;DHT22;62655;56.780;23.922;2022-08-19T02:45:49;19.50;99.90
57386;DHT22;62655;56.780;23.922;2022-08-19T02:48:22;19.40;99.90
57386;DHT22;62655;56.780;23.922;2022-08-19T02:50:52;19.60;99.90
57386;DHT22;62655;56.780;23.922;2022-08-19T02:53:24;19.70;99.90
57386;DHT22;62655;56.780;23.922;2022-08-19T02:55:52;19.80;99.90
57386;DHT22;62655;56.780;23.922;2022-08-19T02:58:20;19.80;99.90
57386;DHT22;62655;56.780;23.922;2022-08-19T03:00:52;19.90;99.90
57386;DHT22;62655;56.780;23.922;2022-08-19T03:03:21;19.80;99.90
57386;DHT22;62655;56.780;23.922;2022-08-19T03:05:48;19.80;99.90
57386;DHT22;62655;56.780;23.922;2022-08-19T03:08:23;19.90;99.90
57386;DHT22;62655;56.780;23.922;2022-08-19T03:10:51;19.90;99.90
57386;DHT22;62655;56.780;23.922;2022-08-19T03:13:20;20.00;99.90
57386;DHT22;62655;56.780;23.922;2022-08-19T03:15:48;20.00;99.90
57386;DHT22;62655;56.780;23.922;2022-08-19T03:18:16;19.90;99.90
57386;DHT22;62655;56.780;23.922;2022-08-19T03:20:49;20.00;99.90
57386;DHT22;62655;56.780;23.922;2022-08-19T03:23:17;20.00;99.90
57386;DHT22;62655;56.780;23.922;2022-08-19T03:25:46;20.10;99.90
57386;DHT22;62655;56.780;23.922;2022-08-19T03:28:34;20.10;99.90
57386;DHT22;62655;56.780;23.922;2022-08-19T03:31:07;20.10;99.90
57386;DHT22;62655;56.780;23.922;2022-08-19T03:33:55;20.20;99.90
57386;DHT22;62655;56.780;23.922;2022-08-19T03:36:25;20.20;99.90
57386;DHT22;62655;56.780;23.922;2022-08-19T03:38:58;20.20;99.90
57386;DHT22;62655;56.780;23.922;2022-08-19T03:41:32;20.20;99.90
57386;DHT22;62655;56.780;23.922;2022-08-19T03:44:17;20.20;99.90
57386;DHT22;62655;56.780;23.922;2022-08-19T03:46:47;20.30;99.90
57386;DHT22;62655;56.780;23.922;2022-08-19T03:49:15;20.30;99.90
57386;DHT22;62655;56.780;23.922;2022-08-19T03:51:46;20.50;99.90
57386;DHT22;62655;56.780;23.922;2022-08-19T03:54:17;20.40;99.90
57386;DHT22;62655;56.780;23.922;2022-08-19T03:56:46;20.40;99.90
57386;DHT22;62655;56.780;23.922;2022-08-19T03:59:18;20.50;99.90
57386;DHT22;62655;56.780;23.922;2022-08-19T04:01:46;20.60;99.90
57386;DHT22;62655;56.780;23.922;2022-08-19T04:04:14;20.70;99.90
57386;DHT22;62655;56.780;23.922;2022-08-19T04:06:43;20.70;99.90
57386;DHT22;62655;56.780;23.922;2022-08-19T04:09:11;20.60;99.90
57386;DHT22;62655;56.780;23.922;2022-08-19T04:11:46;20.80;99.90
57386;DHT22;62655;56.780;23.922;2022-08-19T04:14:18;20.80;99.90
57386;DHT22;62655;56.780;23.922;2022-08-19T04:16:47;20.90;99.90
57386;DHT22;62655;56.780;23.922;2022-08-19T04:19:16;21.00;99.90
57386;DHT22;62655;56.780;23.922;2022-08-19T04:21:46;21.10;99.90
57386;DHT22;62655;56.780;23.922;2022-08-19T04:24:15;21.20;99.90
57386;DHT22;62655;56.780;23.922;2022-08-19T04:26:43;21.30;99.90
57386;DHT22;62655;56.780;23.922;2022-08-19T04:29:15;21.50;99.90
57386;DHT22;62655;56.780;23.922;2022-08-19T04:31:44;21.60;99.90
57386;DHT22;62655;56.780;23.922;2022-08-19T04:34:15;21.70;99.90
57386;DHT22;62655;56.780;23.922;2022-08-19T04:36:44;21.80;99.90
57386;DHT22;62655;56.780;23.922;2022-08-19T04:39:15;21.90;99.90
57386;DHT22;62655;56.780;23.922;2022-08-19T04:41:44;22.00;99.90
57386;DHT22;62655;56.780;23.922;2022-08-19T04:44:32;22.30;99.90
57386;DHT22;62655;56.780;23.922;2022-08-19T04:47:02;22.50;99.90
57386;DHT22;62655;56.780;23.922;2022-08-19T04:49:37;22.70;99.90
57386;DHT22;62655;56.780;23.922;2022-08-19T04:52:05;22.90;99.90
57386;DHT22;62655;56.780;23.922;2022-08-19T04:54:33;22.90;99.90
57386;DHT22;62655;56.780;23.922;2022-08-19T04:57:07;23.10;99.90
57386;DHT22;62655;56.780;23.922;2022-08-19T04:59:38;23.40;99.90
57386;DHT22;62655;56.780;23.922;2022-08-19T05:02:08;23.60;99.90
57386;DHT22;62655;56.780;23.922;2022-08-19T05:04:36;24.00;99.90
57386;DHT22;62655;56.780;23.922;2022-08-19T05:07:08;24.30;99.90
57386;DHT22;62655;56.780;23.922;2022-08-19T05:09:37;24.40;99.90
57386;DHT22;62655;56.780;23.922;2022-08-19T05:12:25;24.60;99.90
57386;DHT22;62655;56.780;23.922;2022-08-19T05:14:56;25.10;99.90
57386;DHT22;62655;56.780;23.922;2022-08-19T05:17:25;25.40;99.90
57386;DHT22;62655;56.780;23.922;2022-08-19T05:19:57;25.40;99.90
57386;DHT22;62655;56.780;23.922;2022-08-19T05:22:44;25.60;99.90
57386;DHT22;62655;56.780;23.922;2022-08-19T05:25:19;25.40;99.90
57386;DHT22;62655;56.780;23.922;2022-08-19T05:27:47;25.60;99.90
57386;DHT22;62655;56.780;23.922;2022-08-19T05:30:16;25.70;99.90
57386;DHT22;62655;56.780;23.922;2022-08-19T05:32:44;26.10;99.90
57386;DHT22;62655;56.780;23.922;2022-08-19T05:35:12;26.00;99.90
57386;DHT22;62655;56.780;23.922;2022-08-19T05:37:40;26.00;99.90
57386;DHT22;62655;56.780;23.922;2022-08-19T05:40:08;26.20;99.90
57386;DHT22;62655;56.780;23.922;2022-08-19T05:42:36;26.30;99.90
57386;DHT22;62655;56.780;23.922;2022-08-19T05:45:05;26.70;99.90
57386;DHT22;62655;56.780;23.922;2022-08-19T05:47:35;26.40;99.90
57386;DHT22;62655;56.780;23.922;2022-08-19T05:50:08;26.60;99.90
57386;DHT22;62655;56.780;23.922;2022-08-19T05:52:37;26.70;99.90
57386;DHT22;62655;56.780;23.922;2022-08-19T05:55:12;27.10;99.90
57386;DHT22;62655;56.780;23.922;2022-08-19T05:57:39;27.30;99.90
57386;DHT22;62655;56.780;23.922;2022-08-19T06:00:07;27.30;99.90
57386;DHT22;62655;56.780;23.922;2022-08-19T06:02:39;27.50;99.90
57386;DHT22;62655;56.780;23.922;2022-08-19T06:05:07;27.40;99.90
57386;DHT22;62655;56.780;23.922;2022-08-19T06:07:38;27.80;99.90
57386;DHT22;62655;56.780;23.922;2022-08-19T06:10:08;28.10;99.90
57386;DHT22;62655;56.780;23.922;2022-08-19T06:12:36;28.10;99.90
57386;DHT22;62655;56.780;23.922;2022-08-19T06:15:10;29.00;99.90
57386;DHT22;62655;56.780;23.922;2022-08-19T06:17:38;29.50;99.90
57386;DHT22;62655;56.780;23.922;2022-08-19T06:22:40;30.00;99.90
57386;DHT22;62655;56.780;23.922;2022-08-19T06:25:08;30.10;99.40
57386;DHT22;62655;56.780;23.922;2022-08-19T06:27:39;30.60;99.30
57386;DHT22;62655;56.780;23.922;2022-08-19T06:30:26;29.80;99.40
57386;DHT22;62655;56.780;23.922;2022-08-19T06:32:54;29.20;99.90
57386;DHT22;62655;56.780;23.922;2022-08-19T06:35:22;28.60;99.90
57386;DHT22;62655;56.780;23.922;2022-08-19T06:37:49;28.20;99.90
57386;DHT22;62655;56.780;23.922;2022-08-19T06:40:17;28.30;99.90
57386;DHT22;62655;56.780;23.922;2022-08-19T06:42:45;28.50;99.90
57386;DHT22;62655;56.780;23.922;2022-08-19T06:45:21;29.10;99.90
57386;DHT22;62655;56.780;23.922;2022-08-19T06:48:00;29.00;99.90
57386;DHT22;62655;56.780;23.922;2022-08-19T06:50:29;28.60;99.90
57386;DHT22;62655;56.780;23.922;2022-08-19T06:52:56;27.90;99.90
57386;DHT22;62655;56.780;23.922;2022-08-19T06:55:31;27.40;99.90
57386;DHT22;62655;56.780;23.922;2022-08-19T06:58:02;27.00;99.90
57386;DHT22;62655;56.780;23.922;2022-08-19T07:00:31;26.90;99.90
57386;DHT22;62655;56.780;23.922;2022-08-19T07:02:58;26.60;99.90
57386;DHT22;62655;56.780;23.922;2022-08-19T07:05:40;26.60;99.90
57386;DHT22;62655;56.780;23.922;2022-08-19T07:08:12;26.40;99.90
57386;DHT22;62655;56.780;23.922;2022-08-19T07:10:43;26.40;99.90
57386;DHT22;62655;56.780;23.922;2022-08-19T07:13:12;26.30;99.90
57386;DHT22;62655;56.780;23.922;2022-08-19T07:15:39;26.30;99.90
57386;DHT22;62655;56.780;23.922;2022-08-19T07:18:07;26.20;99.90
57386;DHT22;62655;56.780;23.922;2022-08-19T07:20:38;26.20;99.90
57386;DHT22;62655;56.780;23.922;2022-08-19T07:23:08;26.40;99.90
57386;DHT22;62655;56.780;23.922;2022-08-19T07:25:41;26.80;99.90
57386;DHT22;62655;56.780;23.922;2022-08-19T07:28:09;27.00;99.90
57386;DHT22;62655;56.780;23.922;2022-08-19T07:30:51;26.80;99.90
57386;DHT22;62655;56.780;23.922;2022-08-19T07:33:18;26.60;99.90
57386;DHT22;62655;56.780;23.922;2022-08-19T07:35:47;26.70;99.90
57386;DHT22;62655;56.780;23.922;2022-08-19T07:38:15;26.70;99.90
57386;DHT22;62655;56.780;23.922;2022-08-19T07:40:44;26.50;99.90
57386;DHT22;62655;56.780;23.922;2022-08-19T07:43:13;26.60;99.90
57386;DHT22;62655;56.780;23.922;2022-08-19T07:45:44;26.50;99.90
57386;DHT22;62655;56.780;23.922;2022-08-19T07:48:12;26.40;99.90
57386;DHT22;62655;56.780;23.922;2022-08-19T07:50:41;26.30;99.90
57386;DHT22;62655;56.780;23.922;2022-08-19T07:53:09;26.40;99.90
57386;DHT22;62655;56.780;23.922;2022-08-19T07:55:38;26.60;99.90
57386;DHT22;62655;56.780;23.922;2022-08-19T07:58:12;26.80;99.90
57386;DHT22;62655;56.780;23.922;2022-08-19T08:00:41;26.90;99.90
57386;DHT22;62655;56.780;23.922;2022-08-19T08:03:09;27.10;99.90
57386;DHT22;62655;56.780;23.922;2022-08-19T08:05:37;27.20;99.90
57386;DHT22;62655;56.780;23.922;2022-08-19T08:08:23;27.40;99.90
57386;DHT22;62655;56.780;23.922;2022-08-19T08:11:13;27.50;99.90
57386;DHT22;62655;56.780;23.922;2022-08-19T08:13:43;27.50;99.90
57386;DHT22;62655;56.780;23.922;2022-08-19T08:16:11;27.40;99.90
57386;DHT22;62655;56.780;23.922;2022-08-19T08:18:40;27.60;99.90
57386;DHT22;62655;56.780;23.922;2022-08-19T08:21:19;27.60;99.90
57386;DHT22;62655;56.780;23.922;2022-08-19T08:23:46;27.70;99.90
57386;DHT22;62655;56.780;23.922;2022-08-19T08:26:14;28.10;99.90
57386;DHT22;62655;56.780;23.922;2022-08-19T08:28:45;28.20;99.90
57386;DHT22;62655;56.780;23.922;2022-08-19T08:31:15;27.90;99.90
57386;DHT22;62655;56.780;23.922;2022-08-19T08:33:43;27.80;99.90
57386;DHT22;62655;56.780;23.922;2022-08-19T08:36:12;27.80;99.90
57386;DHT22;62655;56.780;23.922;2022-08-19T08:38:43;28.20;99.90
57386;DHT22;62655;56.780;23.922;2022-08-19T08:41:50;28.60;99.90
57386;DHT22;62655;56.780;23.922;2022-08-19T08:47:13;28.60;99.90
57386;DHT22;62655;56.780;23.922;2022-08-19T08:49:47;28.70;99.80
57386;DHT22;62655;56.780;23.922;2022-08-19T08:52:34;28.80;99.90
57386;DHT22;62655;56.780;23.922;2022-08-19T08:55:11;28.80;99.90
57386;DHT22;62655;56.780;23.922;2022-08-19T09:00:20;28.40;99.90
57386;DHT22;62655;56.780;23.922;2022-08-19T09:02:48;28.60;99.90
57386;DHT22;62655;56.780;23.922;2022-08-19T09:05:17;28.60;99.90
57386;DHT22;62655;56.780;23.922;2022-08-19T09:08:10;28.60;99.90
57386;DHT22;62655;56.780;23.922;2022-08-19T09:10:51;28.80;99.90
57386;DHT22;62655;56.780;23.922;2022-08-19T09:16:27;29.20;99.90
57386;DHT22;62655;56.780;23.922;2022-08-19T09:19:04;29.30;99.90
57386;DHT22;62655;56.780;23.922;2022-08-19T09:21:33;29.00;99.90
57386;DHT22;62655;56.780;23.922;2022-08-19T09:24:01;28.90;99.80
57386;DHT22;62655;56.780;23.922;2022-08-19T09:26:30;28.70;99.90
57386;DHT22;62655;56.780;23.922;2022-08-19T09:29:19;28.50;99.90
57386;DHT22;62655;56.780;23.922;2022-08-19T09:31:48;28.50;99.90
57386;DHT22;62655;56.780;23.922;2022-08-19T09:34:17;28.70;99.90
57386;DHT22;62655;56.780;23.922;2022-08-19T09:36:49;28.90;99.90
57386;DHT22;62655;56.780;23.922;2022-08-19T09:39:21;29.30;99.80
57386;DHT22;62655;56.780;23.922;2022-08-19T09:41:48;29.60;99.90
57386;DHT22;62655;56.780;23.922;2022-08-19T09:44:17;29.70;99.90
57386;DHT22;62655;56.780;23.922;2022-08-19T09:46:45;29.90;99.70
57386;DHT22;62655;56.780;23.922;2022-08-19T09:49:17;30.40;98.40
57386;DHT22;62655;56.780;23.922;2022-08-19T09:51:49;30.20;98.70
57386;DHT22;62655;56.780;23.922;2022-08-19T09:54:17;30.40;97.80
57386;DHT22;62655;56.780;23.922;2022-08-19T09:56:57;30.40;98.00
57386;DHT22;62655;56.780;23.922;2022-08-19T09:59:26;30.40;98.00
57386;DHT22;62655;56.780;23.922;2022-08-19T10:01:54;30.50;98.10
57386;DHT22;62655;56.780;23.922;2022-08-19T10:04:30;30.60;97.80
57386;DHT22;62655;56.780;23.922;2022-08-19T10:07:16;30.90;97.80
57386;DHT22;62655;56.780;23.922;2022-08-19T10:09:45;31.20;96.70
57386;DHT22;62655;56.780;23.922;2022-08-19T10:12:12;30.80;95.60
57386;DHT22;62655;56.780;23.922;2022-08-19T10:14:46;31.10;96.10
57386;DHT22;62655;56.780;23.922;2022-08-19T10:17:13;30.80;94.50
57386;DHT22;62655;56.780;23.922;2022-08-19T10:19:47;30.90;93.30
57386;DHT22;62655;56.780;23.922;2022-08-19T10:22:22;31.10;93.80
57386;DHT22;62655;56.780;23.922;2022-08-19T10:24:52;31.40;92.40
57386;DHT22;62655;56.780;23.922;2022-08-19T10:27:20;30.90;92.50
57386;DHT22;62655;56.780;23.922;2022-08-19T10:29:48;31.20;93.20
57386;DHT22;62655;56.780;23.922;2022-08-19T10:32:16;31.00;92.90
57386;DHT22;62655;56.780;23.922;2022-08-19T10:34:43;31.10;92.50
57386;DHT22;62655;56.780;23.922;2022-08-19T10:37:14;31.20;91.90
57386;DHT22;62655;56.780;23.922;2022-08-19T10:39:50;31.50;92.20
57386;DHT22;62655;56.780;23.922;2022-08-19T10:42:19;31.10;92.40
57386;DHT22;62655;56.780;23.922;2022-08-19T10:44:47;30.80;92.30
57386;DHT22;62655;56.780;23.922;2022-08-19T10:47:18;31.40;92.00
57386;DHT22;62655;56.780;23.922;2022-08-19T10:49:55;31.70;91.10
57386;DHT22;62655;56.780;23.922;2022-08-19T10:52:44;31.40;91.70
57386;DHT22;62655;56.780;23.922;2022-08-19T10:55:18;31.50;91.30
57386;DHT22;62655;56.780;23.922;2022-08-19T10:58:11;32.10;91.10
57386;DHT22;62655;56.780;23.922;2022-08-19T11:00:38;31.60;90.50
57386;DHT22;62655;56.780;23.922;2022-08-19T11:03:07;31.60;90.90
57386;DHT22;62655;56.780;23.922;2022-08-19T11:05:36;31.90;90.10
57386;DHT22;62655;56.780;23.922;2022-08-19T11:08:07;33.00;89.30
57386;DHT22;62655;56.780;23.922;2022-08-19T11:10:52;33.50;86.10
57386;DHT22;62655;56.780;23.922;2022-08-19T11:16:00;35.20;82.60
57386;DHT22;62655;56.780;23.922;2022-08-19T11:18:38;36.40;82.60
57386;DHT22;62655;56.780;23.922;2022-08-19T11:21:32;36.60;76.50
57386;DHT22;62655;56.780;23.922;2022-08-19T11:24:14;35.30;76.10
57386;DHT22;62655;56.780;23.922;2022-08-19T11:26:44;34.90;77.40
57386;DHT22;62655;56.780;23.922;2022-08-19T11:29:12;34.50;78.20
57386;DHT22;62655;56.780;23.922;2022-08-19T11:31:42;35.40;77.50
57386;DHT22;62655;56.780;23.922;2022-08-19T11:34:13;35.70;74.70
57386;DHT22;62655;56.780;23.922;2022-08-19T11:36:43;34.90;75.10
57386;DHT22;62655;56.780;23.922;2022-08-19T11:39:14;35.10;75.40
57386;DHT22;62655;56.780;23.922;2022-08-19T11:41:42;36.10;75.50
57386;DHT22;62655;56.780;23.922;2022-08-19T11:44:10;37.70;72.20
57386;DHT22;62655;56.780;23.922;2022-08-19T11:46:37;36.60;71.80
57386;DHT22;62655;56.780;23.922;2022-08-19T11:49:06;36.80;72.00
57386;DHT22;62655;56.780;23.922;2022-08-19T11:51:42;36.20;72.40
57386;DHT22;62655;56.780;23.922;2022-08-19T11:54:12;36.10;71.60
57386;DHT22;62655;56.780;23.922;2022-08-19T11:56:41;35.30;73.60
57386;DHT22;62655;56.780;23.922;2022-08-19T11:59:09;35.80;72.30
57386;DHT22;62655;56.780;23.922;2022-08-19T12:01:41;35.40;72.90
57386;DHT22;62655;56.780;23.922;2022-08-19T12:04:10;35.70;72.30
57386;DHT22;62655;56.780;23.922;2022-08-19T12:06:39;35.60;72.50
57386;DHT22;62655;56.780;23.922;2022-08-19T12:09:08;34.50;72.30
57386;DHT22;62655;56.780;23.922;2022-08-19T12:11:38;34.10;74.80
57386;DHT22;62655;56.780;23.922;2022-08-19T12:14:09;34.20;74.80
57386;DHT22;62655;56.780;23.922;2022-08-19T12:16:41;34.60;74.80
57386;DHT22;62655;56.780;23.922;2022-08-19T12:19:17;34.50;73.20
57386;DHT22;62655;56.780;23.922;2022-08-19T12:21:49;34.20;73.70
57386;DHT22;62655;56.780;23.922;2022-08-19T12:24:17;34.20;75.30
57386;DHT22;62655;56.780;23.922;2022-08-19T12:26:50;34.30;73.30
57386;DHT22;62655;56.780;23.922;2022-08-19T12:29:21;34.00;72.70
57386;DHT22;62655;56.780;23.922;2022-08-19T12:31:52;33.60;75.20
57386;DHT22;62655;56.780;23.922;2022-08-19T12:34:20;33.40;75.40
57386;DHT22;62655;56.780;23.922;2022-08-19T12:36:48;33.50;75.90
57386;DHT22;62655;56.780;23.922;2022-08-19T12:39:16;34.30;75.20
57386;DHT22;62655;56.780;23.922;2022-08-19T12:41:44;35.30;73.70
57386;DHT22;62655;56.780;23.922;2022-08-19T12:44:20;34.70;72.80
57386;DHT22;62655;56.780;23.922;2022-08-19T12:46:58;34.40;72.50
57386;DHT22;62655;56.780;23.922;2022-08-19T12:49:28;34.40;73.00
57386;DHT22;62655;56.780;23.922;2022-08-19T12:52:16;34.80;71.50
57386;DHT22;62655;56.780;23.922;2022-08-19T12:54:49;33.50;73.80
57386;DHT22;62655;56.780;23.922;2022-08-19T12:57:28;34.20;74.00
57386;DHT22;62655;56.780;23.922;2022-08-19T13:00:12;34.00;73.40
57386;DHT22;62655;56.780;23.922;2022-08-19T13:02:44;33.80;73.80
57386;DHT22;62655;56.780;23.922;2022-08-19T13:05:15;34.20;73.10
57386;DHT22;62655;56.780;23.922;2022-08-19T13:07:49;33.70;71.90
57386;DHT22;62655;56.780;23.922;2022-08-19T13:10:21;33.10;73.00
57386;DHT22;62655;56.780;23.922;2022-08-19T13:12:51;32.80;74.60
57386;DHT22;62655;56.780;23.922;2022-08-19T13:15:20;32.30;75.30
57386;DHT22;62655;56.780;23.922;2022-08-19T13:17:51;33.20;74.20
57386;DHT22;62655;56.780;23.922;2022-08-19T13:20:21;33.60;71.90
57386;DHT22;62655;56.780;23.922;2022-08-19T13:22:49;33.80;71.80
57386;DHT22;62655;56.780;23.922;2022-08-19T13:25:18;33.60;71.80
57386;DHT22;62655;56.780;23.922;2022-08-19T13:27:48;34.10;71.60
57386;DHT22;62655;56.780;23.922;2022-08-19T13:30:19;33.40;73.30
57386;DHT22;62655;56.780;23.922;2022-08-19T13:33:05;33.50;73.50
57386;DHT22;62655;56.780;23.922;2022-08-19T13:35:56;33.30;71.90
57386;DHT22;62655;56.780;23.922;2022-08-19T13:38:24;32.80;74.00
57386;DHT22;62655;56.780;23.922;2022-08-19T13:40:53;33.00;71.80
57386;DHT22;62655;56.780;23.922;2022-08-19T13:43:22;33.10;72.80
57386;DHT22;62655;56.780;23.922;2022-08-19T13:45:53;33.90;71.60
57386;DHT22;62655;56.780;23.922;2022-08-19T13:48:25;33.70;70.40
57386;DHT22;62655;56.780;23.922;2022-08-19T13:50:55;33.50;72.00
57386;DHT22;62655;56.780;23.922;2022-08-19T13:53:23;33.30;70.80
57386;DHT22;62655;56.780;23.922;2022-08-19T13:55:51;34.20;71.40
57386;DHT22;62655;56.780;23.922;2022-08-19T13:58:21;34.10;69.20
57386;DHT22;62655;56.780;23.922;2022-08-19T14:00:49;34.30;68.50
57386;DHT22;62655;56.780;23.922;2022-08-19T14:03:18;33.40;68.80
57386;DHT22;62655;56.780;23.922;2022-08-19T14:05:45;33.10;69.50
57386;DHT22;62655;56.780;23.922;2022-08-19T14:08:13;33.70;68.50
57386;DHT22;62655;56.780;23.922;2022-08-19T14:10:41;33.90;69.40
57386;DHT22;62655;56.780;23.922;2022-08-19T14:13:15;33.70;68.30
57386;DHT22;62655;56.780;23.922;2022-08-19T14:15:45;34.10;67.90
57386;DHT22;62655;56.780;23.922;2022-08-19T14:18:14;35.10;68.10
57386;DHT22;62655;56.780;23.922;2022-08-19T14:20:41;35.40;65.70
57386;DHT22;62655;56.780;23.922;2022-08-19T14:23:10;34.30;67.90
57386;DHT22;62655;56.780;23.922;2022-08-19T14:25:39;33.70;66.90
57386;DHT22;62655;56.780;23.922;2022-08-19T14:28:07;32.90;67.90
57386;DHT22;62655;56.780;23.922;2022-08-19T14:30:36;32.90;69.20
57386;DHT22;62655;56.780;23.922;2022-08-19T14:33:05;33.30;68.60
57386;DHT22;62655;56.780;23.922;2022-08-19T14:35:34;34.20;67.90
57386;DHT22;62655;56.780;23.922;2022-08-19T14:38:03;34.90;66.70
57386;DHT22;62655;56.780;23.922;2022-08-19T14:40:32;34.40;66.80
57386;DHT22;62655;56.780;23.922;2022-08-19T14:43:01;34.10;66.10
57386;DHT22;62655;56.780;23.922;2022-08-19T14:45:35;33.00;68.50
57386;DHT22;62655;56.780;23.922;2022-08-19T14:48:07;32.00;70.30
57386;DHT22;62655;56.780;23.922;2022-08-19T14:50:44;31.50;71.90
57386;DHT22;62655;56.780;23.922;2022-08-19T14:53:12;30.90;73.10
57386;DHT22;62655;56.780;23.922;2022-08-19T14:55:42;30.40;74.20
57386;DHT22;62655;56.780;23.922;2022-08-19T14:58:11;30.40;74.90
57386;DHT22;62655;56.780;23.922;2022-08-19T15:00:57;30.40;75.10
57386;DHT22;62655;56.780;23.922;2022-08-19T15:03:27;30.30;74.80
57386;DHT22;62655;56.780;23.922;2022-08-19T15:05:55;30.50;75.40
57386;DHT22;62655;56.780;23.922;2022-08-19T15:08:25;30.30;74.40
57386;DHT22;62655;56.780;23.922;2022-08-19T15:10:53;30.20;75.20
57386;DHT22;62655;56.780;23.922;2022-08-19T15:13:21;30.30;74.80
57386;DHT22;62655;56.780;23.922;2022-08-19T15:15:49;30.20;75.10
57386;DHT22;62655;56.780;23.922;2022-08-19T15:18:16;30.20;74.30
57386;DHT22;62655;56.780;23.922;2022-08-19T15:20:44;30.20;75.00
57386;DHT22;62655;56.780;23.922;2022-08-19T15:23:14;30.30;74.30
57386;DHT22;62655;56.780;23.922;2022-08-19T15:25:42;30.20;75.20
57386;DHT22;62655;56.780;23.922;2022-08-19T15:28:10;30.10;74.60
57386;DHT22;62655;56.780;23.922;2022-08-19T15:30:39;30.00;74.30
57386;DHT22;62655;56.780;23.922;2022-08-19T15:33:07;30.10;75.30
57386;DHT22;62655;56.780;23.922;2022-08-19T15:35:34;30.30;74.80
57386;DHT22;62655;56.780;23.922;2022-08-19T15:38:02;30.40;73.80
57386;DHT22;62655;56.780;23.922;2022-08-19T15:40:30;30.60;73.70
57386;DHT22;62655;56.780;23.922;2022-08-19T15:42:58;31.30;73.20
57386;DHT22;62655;56.780;23.922;2022-08-19T15:45:26;31.20;71.90
57386;DHT22;62655;56.780;23.922;2022-08-19T15:48:03;31.40;72.50
57386;DHT22;62655;56.780;23.922;2022-08-19T15:50:31;31.70;71.80
57386;DHT22;62655;56.780;23.922;2022-08-19T15:53:03;31.80;71.50
57386;DHT22;62655;56.780;23.922;2022-08-19T15:55:33;31.60;71.50